Time,TemperatureF,DewpointF,PressureIn,WindDirection,WindDirectionDegrees,WindSpeedMPH,WindSpeedGustMPH,Humidity,HourlyPrecipIn,Conditions,Clouds,dailyrainin,SoftwareType,DateUTC
2013-08-05 00:00:00,68.5,55.9,24.02,WNW,292,0.0,4.0,64,0.00,,,0.00,VWS V13.01,2013-08-05 04:00:00,
2013-08-05 01:00:00,66.1,55.7,24.02,WNW,292,0.0,0.0,69,0.00,,,0.00,VWS V13.01,2013-08-05 05:00:00,
2013-08-05 02:00:00,63.0,54.6,24.02,WNW,292,0.0,1.0,74,0.00,,,0.00,VWS V13.01,2013-08-05 06:00:00,
2013-08-05 03:00:00,61.8,53.8,24.02,WNW,292,0.0,1.0,75,0.00,,,0.00,VWS V13.01,2013-08-05 07:00:00,
2013-08-05 04:00:00,61.3,53.3,24.02,WNW,292,0.0,1.0,75,0.00,,,0.00,VWS V13.01,2013-08-05 08:00:00,
2013-08-05 05:00:00,61.2,53.6,24.02,WNW,292,0.0,2.0,76,0.00,,,0.00,VWS V13.01,2013-08-05 09:00:00,
2013-08-05 06:00:00,60.6,53.7,24.02,WNW,292,0.0,6.0,78,0.00,,,0.00,VWS V13.01,2013-08-05 10:00:00,
2013-08-05 07:00:00,60.6,53.0,24.02,WNW,292,0.0,4.0,76,0.00,,,0.00,VWS V13.01,2013-08-05 11:00:00,
2013-08-05 08:00:00,63.8,53.8,24.02,NW,315,0.0,4.0,70,0.00,,,0.00,VWS V13.01,2013-08-05 12:00:00,
2013-08-05 09:00:00,69.2,53.8,24.02,West,270,0.0,5.0,58,0.00,,,0.00,VWS V13.01,2013-08-05 13:00:00,
2013-08-05 10:00:00,73.8,54.6,24.02,NW,315,0.0,6.0,51,0.00,,,0.00,VWS V13.01,2013-08-05 14:00:00,
2013-08-05 11:00:00,75.3,53.1,24.02,West,270,0.0,7.0,46,0.00,,,0.00,VWS V13.01,2013-08-05 15:00:00,
2013-08-05 12:00:00,76.8,51.3,24.02,NW,315,0.0,7.0,41,0.00,,,0.00,VWS V13.01,2013-08-05 16:00:00,
2013-08-05 13:00:00,79.4,51.6,24.02,NW,315,1.0,6.0,38,0.00,,,0.00,VWS V13.01,2013-08-05 17:00:00,
2013-08-05 14:00:00,78.2,54.5,24.02,WSW,248,1.0,7.0,44,0.00,,,0.00,VWS V13.01,2013-08-05 18:00:00,
2013-08-05 15:00:00,76.7,53.8,24.02,NW,315,0.0,7.0,45,0.00,,,0.00,VWS V13.01,2013-08-05 19:00:00,
2013-08-05 16:00:00,77.3,53.1,24.02,NW,315,1.0,6.0,43,0.00,,,0.00,VWS V13.01,2013-08-05 20:00:00,
2013-08-05 17:00:00,78.0,53.7,24.02,West,270,1.0,9.0,43,0.00,,,0.00,VWS V13.01,2013-08-05 21:00:00,
2013-08-05 18:00:00,79.2,54.8,24.02,West,270,0.0,6.0,43,0.00,,,0.00,VWS V13.01,2013-08-05 22:00:00,
2013-08-05 19:00:00,76.9,57.4,24.02,WNW,292,0.0,5.0,51,0.00,,,0.00,VWS V13.01,2013-08-05 23:00:00,
2013-08-05 20:00:00,74.0,56.8,24.02,WNW,292,0.0,4.0,55,0.00,,,0.00,VWS V13.01,2013-08-06 00:00:00,
2013-08-05 21:00:00,72.1,57.5,24.02,WNW,292,0.0,0.0,60,0.00,,,0.00,VWS V13.01,2013-08-06 01:00:00,
2013-08-05 22:00:00,70.8,58.5,24.02,WNW,292,0.0,0.0,65,0.00,,,0.00,VWS V13.01,2013-08-06 02:00:00,
2013-08-05 23:00:00,69.3,58.7,24.02,WNW,292,0.0,0.0,69,0.00,,,0.00,VWS V13.01,2013-08-06 03:00:00,